To NAV CANADA Home Page Login to a new session Search on AWWS site Feedback and Comments Disclaimer Vers la page française équivalente Tips FAQ What's new on the site To the Forecasts and Observations / NOTAM section To "File a Flight Plan" website Publications and other links Update of the User's profile FIC Telephone Numbers My Weather Data Folder Route Weather Data Regional Weather Data Local Weather Data To the Forecasts and Observations / NOTAM section
Request Generated 03/23/2017 at 00:09:11 UTC . Weather information available at that time is displayed.

METAR/TAF

ARVIAT/NU    (show WxCam)

METAR CYEK 230000Z AUTO 24003KT 9SM CLR M20/M23 A3011 RMK SLP201=
METAR CYEK 222300Z AUTO VRB02KT 9SM CLR M20/M23 A3012 RMK SLP204=
METAR CYEK 222200Z VRB02KT 15SM BKN280 M20/M24 A3013 RMK CS7
-19.6/-28.3/0.0MM SNW CVR/HARD PACK LAST STFT OBS/NEXT 231200 UTC
SLP205=

TAF CYEK 222341Z 2300/2312 VRB03KT P6SM SKC
BECMG 2300/2302 18012KT
FM230600 18012KT P6SM BKN150
BECMG 2309/2311 01015G25KT BKN060
RMK NXT FCST BY 230600Z=
Your time UTC time
Weather data provided by Environment Canada and NAV CANADA